Terminal Aerodrome Forecast
Issued by NWS Cleveland, OH

Home | Current Version | Previous Version | Graphics & Text | Print | Product List | Glossary On
Versions: 1 2 3 4 5 6 7 8 9 10 11 12 13 14 15 16
411
FTUS41 KCLE 152332
TAFERI
TAF
KERI 152332Z 1600/1624 18020G30KT 6SM -SHRA BR BKN035 OVC050
      TEMPO 1600/1603 5SM -RA BR BKN025
     FM160300 20018G28KT P6SM VCSH OVC020
     FM160600 24015G25KT P6SM VCSH OVC015
     FM161500 28018G28KT P6SM VCSH OVC020=

USA.gov is the U.S. government's official web portal to all federal, state and local government web resources and services.